sensor_id;sensor_type;location;lat;lon;timestamp;P1;durP1;ratioP1;P2;durP2;ratioP2
19225;SDS011;9747;48.536;12.522;2023-11-21T00:01:14;1.60;;;1.50;;
19225;SDS011;9747;48.536;12.522;2023-11-21T00:03:42;1.58;;;1.48;;
19225;SDS011;9747;48.536;12.522;2023-11-21T00:06:09;1.52;;;1.50;;
19225;SDS011;9747;48.536;12.522;2023-11-21T00:08:37;1.52;;;1.42;;
19225;SDS011;9747;48.536;12.522;2023-11-21T00:11:04;1.98;;;1.75;;
19225;SDS011;9747;48.536;12.522;2023-11-21T00:13:32;2.28;;;1.73;;
19225;SDS011;9747;48.536;12.522;2023-11-21T00:16:00;1.50;;;1.40;;
19225;SDS011;9747;48.536;12.522;2023-11-21T00:18:29;2.38;;;1.77;;
19225;SDS011;9747;48.536;12.522;2023-11-21T00:20:56;2.25;;;1.60;;
19225;SDS011;9747;48.536;12.522;2023-11-21T00:23:24;1.88;;;1.65;;
19225;SDS011;9747;48.536;12.522;2023-11-21T00:25:51;1.60;;;1.50;;
19225;SDS011;9747;48.536;12.522;2023-11-21T00:28:19;1.83;;;1.63;;
19225;SDS011;9747;48.536;12.522;2023-11-21T00:30:47;1.90;;;1.77;;
19225;SDS011;9747;48.536;12.522;2023-11-21T00:33:14;1.92;;;1.60;;
19225;SDS011;9747;48.536;12.522;2023-11-21T00:35:43;1.77;;;1.52;;
19225;SDS011;9747;48.536;12.522;2023-11-21T00:38:11;1.60;;;1.50;;
19225;SDS011;9747;48.536;12.522;2023-11-21T00:40:38;1.50;;;1.40;;
19225;SDS011;9747;48.536;12.522;2023-11-21T00:43:06;1.35;;;1.25;;
19225;SDS011;9747;48.536;12.522;2023-11-21T00:45:34;2.25;;;1.40;;
19225;SDS011;9747;48.536;12.522;2023-11-21T00:48:03;1.65;;;1.55;;
19225;SDS011;9747;48.536;12.522;2023-11-21T00:50:31;1.45;;;1.35;;
19225;SDS011;9747;48.536;12.522;2023-11-21T00:53:00;1.90;;;1.50;;
19225;SDS011;9747;48.536;12.522;2023-11-21T00:55:28;2.45;;;1.40;;
19225;SDS011;9747;48.536;12.522;2023-11-21T00:57:55;1.60;;;1.50;;
19225;SDS011;9747;48.536;12.522;2023-11-21T01:00:23;2.72;;;1.67;;
19225;SDS011;9747;48.536;12.522;2023-11-21T01:02:51;1.75;;;1.60;;
19225;SDS011;9747;48.536;12.522;2023-11-21T01:05:18;1.70;;;1.60;;
19225;SDS011;9747;48.536;12.522;2023-11-21T01:07:46;1.77;;;1.50;;
19225;SDS011;9747;48.536;12.522;2023-11-21T01:10:15;2.13;;;1.92;;
19225;SDS011;9747;48.536;12.522;2023-11-21T01:12:42;1.67;;;1.58;;
19225;SDS011;9747;48.536;12.522;2023-11-21T01:15:10;1.80;;;1.65;;
19225;SDS011;9747;48.536;12.522;2023-11-21T01:17:38;1.60;;;1.50;;
19225;SDS011;9747;48.536;12.522;2023-11-21T01:20:06;1.40;;;1.38;;
19225;SDS011;9747;48.536;12.522;2023-11-21T01:22:37;1.50;;;1.33;;
19225;SDS011;9747;48.536;12.522;2023-11-21T01:25:04;1.17;;;1.17;;
19225;SDS011;9747;48.536;12.522;2023-11-21T01:27:34;1.70;;;1.60;;
19225;SDS011;9747;48.536;12.522;2023-11-21T01:30:02;1.45;;;1.30;;
19225;SDS011;9747;48.536;12.522;2023-11-21T01:32:33;1.90;;;1.70;;
19225;SDS011;9747;48.536;12.522;2023-11-21T01:35:01;2.03;;;1.50;;
19225;SDS011;9747;48.536;12.522;2023-11-21T01:37:30;1.70;;;1.52;;
19225;SDS011;9747;48.536;12.522;2023-11-21T01:39:58;1.88;;;1.40;;
19225;SDS011;9747;48.536;12.522;2023-11-21T01:42:26;1.45;;;1.35;;
19225;SDS011;9747;48.536;12.522;2023-11-21T01:44:55;1.67;;;1.40;;
19225;SDS011;9747;48.536;12.522;2023-11-21T01:47:23;2.55;;;1.30;;
19225;SDS011;9747;48.536;12.522;2023-11-21T01:49:50;1.52;;;1.35;;
19225;SDS011;9747;48.536;12.522;2023-11-21T01:52:18;1.67;;;1.58;;
19225;SDS011;9747;48.536;12.522;2023-11-21T01:54:46;1.50;;;1.40;;
19225;SDS011;9747;48.536;12.522;2023-11-21T01:57:14;1.50;;;1.40;;
19225;SDS011;9747;48.536;12.522;2023-11-21T01:59:41;1.40;;;1.30;;
19225;SDS011;9747;48.536;12.522;2023-11-21T02:02:12;1.67;;;1.50;;
19225;SDS011;9747;48.536;12.522;2023-11-21T02:04:39;1.60;;;1.50;;
19225;SDS011;9747;48.536;12.522;2023-11-21T02:07:07;1.40;;;1.30;;
19225;SDS011;9747;48.536;12.522;2023-11-21T02:09:35;1.50;;;1.20;;
19225;SDS011;9747;48.536;12.522;2023-11-21T02:12:04;1.70;;;1.60;;
19225;SDS011;9747;48.536;12.522;2023-11-21T02:14:33;2.45;;;1.20;;
19225;SDS011;9747;48.536;12.522;2023-11-21T02:17:01;1.52;;;1.27;;
19225;SDS011;9747;48.536;12.522;2023-11-21T02:19:31;2.08;;;1.70;;
19225;SDS011;9747;48.536;12.522;2023-11-21T02:21:59;1.60;;;1.50;;
19225;SDS011;9747;48.536;12.522;2023-11-21T02:24:31;1.45;;;1.40;;
19225;SDS011;9747;48.536;12.522;2023-11-21T02:26:58;1.52;;;1.40;;
19225;SDS011;9747;48.536;12.522;2023-11-21T02:29:26;1.63;;;1.40;;
19225;SDS011;9747;48.536;12.522;2023-11-21T02:31:54;1.45;;;1.35;;
19225;SDS011;9747;48.536;12.522;2023-11-21T02:34:22;1.58;;;1.48;;
19225;SDS011;9747;48.536;12.522;2023-11-21T02:36:52;1.60;;;1.50;;
19225;SDS011;9747;48.536;12.522;2023-11-21T02:39:20;1.70;;;1.30;;
19225;SDS011;9747;48.536;12.522;2023-11-21T02:41:50;1.60;;;1.50;;
19225;SDS011;9747;48.536;12.522;2023-11-21T02:44:18;1.50;;;1.40;;
19225;SDS011;9747;48.536;12.522;2023-11-21T02:46:46;1.35;;;1.30;;
19225;SDS011;9747;48.536;12.522;2023-11-21T02:49:13;1.85;;;1.23;;
19225;SDS011;9747;48.536;12.522;2023-11-21T02:51:40;1.55;;;1.38;;
19225;SDS011;9747;48.536;12.522;2023-11-21T02:54:08;1.40;;;1.30;;
19225;SDS011;9747;48.536;12.522;2023-11-21T02:56:36;1.38;;;1.38;;
19225;SDS011;9747;48.536;12.522;2023-11-21T02:59:06;1.67;;;1.50;;
19225;SDS011;9747;48.536;12.522;2023-11-21T03:01:34;1.77;;;1.67;;
19225;SDS011;9747;48.536;12.522;2023-11-21T03:04:02;1.70;;;1.50;;
19225;SDS011;9747;48.536;12.522;2023-11-21T03:06:29;1.48;;;1.33;;
19225;SDS011;9747;48.536;12.522;2023-11-21T03:08:57;1.75;;;1.65;;
19225;SDS011;9747;48.536;12.522;2023-11-21T03:11:24;1.52;;;1.42;;
19225;SDS011;9747;48.536;12.522;2023-11-21T03:13:52;1.25;;;1.20;;
19225;SDS011;9747;48.536;12.522;2023-11-21T03:16:20;1.40;;;1.30;;
19225;SDS011;9747;48.536;12.522;2023-11-21T03:18:48;1.48;;;1.30;;
19225;SDS011;9747;48.536;12.522;2023-11-21T03:21:16;1.55;;;1.45;;
19225;SDS011;9747;48.536;12.522;2023-11-21T03:23:44;1.50;;;1.40;;
19225;SDS011;9747;48.536;12.522;2023-11-21T03:26:11;1.63;;;1.38;;
19225;SDS011;9747;48.536;12.522;2023-11-21T03:28:39;2.10;;;1.40;;
19225;SDS011;9747;48.536;12.522;2023-11-21T03:31:07;1.40;;;1.30;;
19225;SDS011;9747;48.536;12.522;2023-11-21T03:33:37;1.38;;;1.27;;
19225;SDS011;9747;48.536;12.522;2023-11-21T03:36:04;1.35;;;1.25;;
19225;SDS011;9747;48.536;12.522;2023-11-21T03:38:34;1.50;;;1.40;;
19225;SDS011;9747;48.536;12.522;2023-11-21T03:41:02;1.48;;;1.38;;
19225;SDS011;9747;48.536;12.522;2023-11-21T03:43:29;1.40;;;1.30;;
19225;SDS011;9747;48.536;12.522;2023-11-21T03:45:57;1.33;;;1.33;;
19225;SDS011;9747;48.536;12.522;2023-11-21T03:48:24;1.40;;;1.30;;
19225;SDS011;9747;48.536;12.522;2023-11-21T03:50:53;1.35;;;1.25;;
19225;SDS011;9747;48.536;12.522;2023-11-21T03:53:20;1.45;;;1.35;;
19225;SDS011;9747;48.536;12.522;2023-11-21T03:55:48;1.30;;;1.30;;
19225;SDS011;9747;48.536;12.522;2023-11-21T03:58:15;1.48;;;1.38;;
19225;SDS011;9747;48.536;12.522;2023-11-21T04:00:43;1.85;;;1.45;;
19225;SDS011;9747;48.536;12.522;2023-11-21T04:03:10;1.17;;;1.13;;
19225;SDS011;9747;48.536;12.522;2023-11-21T04:05:38;1.65;;;1.33;;
19225;SDS011;9747;48.536;12.522;2023-11-21T04:08:08;1.83;;;1.40;;
19225;SDS011;9747;48.536;12.522;2023-11-21T04:10:36;1.45;;;1.35;;
19225;SDS011;9747;48.536;12.522;2023-11-21T04:13:04;1.45;;;1.30;;
19225;SDS011;9747;48.536;12.522;2023-11-21T04:15:32;1.35;;;1.25;;
19225;SDS011;9747;48.536;12.522;2023-11-21T04:17:59;1.40;;;1.10;;
19225;SDS011;9747;48.536;12.522;2023-11-21T04:20:27;1.30;;;1.20;;
19225;SDS011;9747;48.536;12.522;2023-11-21T04:22:54;1.50;;;1.40;;
19225;SDS011;9747;48.536;12.522;2023-11-21T04:25:23;2.30;;;1.60;;
19225;SDS011;9747;48.536;12.522;2023-11-21T04:27:51;1.55;;;1.45;;
19225;SDS011;9747;48.536;12.522;2023-11-21T04:30:19;1.40;;;1.30;;
19225;SDS011;9747;48.536;12.522;2023-11-21T04:32:47;1.30;;;1.20;;
19225;SDS011;9747;48.536;12.522;2023-11-21T04:35:15;1.50;;;1.40;;
19225;SDS011;9747;48.536;12.522;2023-11-21T04:37:43;1.77;;;1.40;;
19225;SDS011;9747;48.536;12.522;2023-11-21T04:40:11;2.05;;;1.50;;
19225;SDS011;9747;48.536;12.522;2023-11-21T04:42:40;2.33;;;1.40;;
19225;SDS011;9747;48.536;12.522;2023-11-21T04:45:08;1.40;;;1.30;;
19225;SDS011;9747;48.536;12.522;2023-11-21T04:47:36;1.40;;;1.20;;
19225;SDS011;9747;48.536;12.522;2023-11-21T04:50:04;3.08;;;1.50;;
19225;SDS011;9747;48.536;12.522;2023-11-21T04:52:32;1.42;;;1.30;;
19225;SDS011;9747;48.536;12.522;2023-11-21T04:55:00;1.30;;;1.20;;
19225;SDS011;9747;48.536;12.522;2023-11-21T04:57:28;1.10;;;1.10;;
19225;SDS011;9747;48.536;12.522;2023-11-21T04:59:57;2.75;;;1.35;;
19225;SDS011;9747;48.536;12.522;2023-11-21T05:02:25;1.10;;;1.10;;
19225;SDS011;9747;48.536;12.522;2023-11-21T05:04:52;1.50;;;1.27;;
19225;SDS011;9747;48.536;12.522;2023-11-21T05:07:21;1.77;;;1.40;;
19225;SDS011;9747;48.536;12.522;2023-11-21T05:09:48;2.45;;;1.48;;
19225;SDS011;9747;48.536;12.522;2023-11-21T05:12:16;2.40;;;1.58;;
19225;SDS011;9747;48.536;12.522;2023-11-21T05:14:43;3.38;;;1.40;;
19225;SDS011;9747;48.536;12.522;2023-11-21T05:17:13;2.90;;;1.60;;
19225;SDS011;9747;48.536;12.522;2023-11-21T05:19:40;3.63;;;1.60;;
19225;SDS011;9747;48.536;12.522;2023-11-21T05:22:08;5.18;;;1.85;;
19225;SDS011;9747;48.536;12.522;2023-11-21T05:24:37;2.40;;;1.60;;
19225;SDS011;9747;48.536;12.522;2023-11-21T05:27:05;3.75;;;1.63;;
19225;SDS011;9747;48.536;12.522;2023-11-21T05:29:34;2.67;;;1.50;;
19225;SDS011;9747;48.536;12.522;2023-11-21T05:32:03;2.83;;;1.60;;
19225;SDS011;9747;48.536;12.522;2023-11-21T05:34:32;3.85;;;1.60;;
19225;SDS011;9747;48.536;12.522;2023-11-21T05:37:00;1.98;;;1.52;;
19225;SDS011;9747;48.536;12.522;2023-11-21T05:39:27;3.50;;;1.73;;
19225;SDS011;9747;48.536;12.522;2023-11-21T05:41:55;3.42;;;1.88;;
19225;SDS011;9747;48.536;12.522;2023-11-21T05:44:25;3.85;;;1.75;;
19225;SDS011;9747;48.536;12.522;2023-11-21T05:46:52;3.47;;;1.90;;
19225;SDS011;9747;48.536;12.522;2023-11-21T05:49:20;3.03;;;1.60;;
19225;SDS011;9747;48.536;12.522;2023-11-21T05:51:49;3.03;;;1.77;;
19225;SDS011;9747;48.536;12.522;2023-11-21T05:54:19;5.00;;;2.03;;
19225;SDS011;9747;48.536;12.522;2023-11-21T05:56:47;3.55;;;1.90;;
19225;SDS011;9747;48.536;12.522;2023-11-21T05:59:14;4.20;;;2.20;;
19225;SDS011;9747;48.536;12.522;2023-11-21T06:01:42;3.60;;;2.00;;
19225;SDS011;9747;48.536;12.522;2023-11-21T06:04:11;4.82;;;2.13;;
19225;SDS011;9747;48.536;12.522;2023-11-21T06:06:39;3.58;;;2.10;;
19225;SDS011;9747;48.536;12.522;2023-11-21T06:09:08;2.80;;;1.88;;
19225;SDS011;9747;48.536;12.522;2023-11-21T06:11:37;2.88;;;1.75;;
19225;SDS011;9747;48.536;12.522;2023-11-21T06:14:04;4.72;;;2.05;;
19225;SDS011;9747;48.536;12.522;2023-11-21T06:16:33;4.75;;;2.15;;
19225;SDS011;9747;48.536;12.522;2023-11-21T06:19:00;3.60;;;1.98;;
19225;SDS011;9747;48.536;12.522;2023-11-21T06:21:28;3.13;;;1.95;;
19225;SDS011;9747;48.536;12.522;2023-11-21T06:23:55;4.60;;;1.80;;
19225;SDS011;9747;48.536;12.522;2023-11-21T06:26:24;3.58;;;2.00;;
19225;SDS011;9747;48.536;12.522;2023-11-21T06:28:51;4.80;;;1.80;;
19225;SDS011;9747;48.536;12.522;2023-11-21T06:31:19;2.72;;;1.52;;
19225;SDS011;9747;48.536;12.522;2023-11-21T06:33:47;2.58;;;1.50;;
19225;SDS011;9747;48.536;12.522;2023-11-21T06:36:15;3.28;;;1.90;;
19225;SDS011;9747;48.536;12.522;2023-11-21T06:38:42;4.78;;;1.80;;
19225;SDS011;9747;48.536;12.522;2023-11-21T06:41:11;3.42;;;1.73;;
19225;SDS011;9747;48.536;12.522;2023-11-21T06:43:42;4.68;;;1.80;;
19225;SDS011;9747;48.536;12.522;2023-11-21T06:46:11;2.25;;;1.58;;
19225;SDS011;9747;48.536;12.522;2023-11-21T06:48:40;3.55;;;1.60;;
19225;SDS011;9747;48.536;12.522;2023-11-21T06:51:08;2.25;;;1.80;;
19225;SDS011;9747;48.536;12.522;2023-11-21T06:53:36;3.60;;;1.55;;
19225;SDS011;9747;48.536;12.522;2023-11-21T06:56:04;2.53;;;1.60;;
19225;SDS011;9747;48.536;12.522;2023-11-21T06:58:42;2.75;;;1.80;;
19225;SDS011;9747;48.536;12.522;2023-11-21T07:01:11;1.85;;;1.65;;
19225;SDS011;9747;48.536;12.522;2023-11-21T07:03:39;2.15;;;1.65;;
19225;SDS011;9747;48.536;12.522;2023-11-21T07:06:07;1.75;;;1.40;;
19225;SDS011;9747;48.536;12.522;2023-11-21T07:08:35;3.72;;;1.30;;
19225;SDS011;9747;48.536;12.522;2023-11-21T07:11:03;2.45;;;1.58;;
19225;SDS011;9747;48.536;12.522;2023-11-21T07:13:31;1.67;;;1.50;;
19225;SDS011;9747;48.536;12.522;2023-11-21T07:16:00;3.55;;;1.50;;
19225;SDS011;9747;48.536;12.522;2023-11-21T07:18:28;2.58;;;1.60;;
19225;SDS011;9747;48.536;12.522;2023-11-21T07:20:55;3.65;;;1.70;;
19225;SDS011;9747;48.536;12.522;2023-11-21T07:23:23;2.35;;;1.67;;
19225;SDS011;9747;48.536;12.522;2023-11-21T07:25:51;2.03;;;1.77;;
19225;SDS011;9747;48.536;12.522;2023-11-21T07:28:19;2.05;;;1.55;;
19225;SDS011;9747;48.536;12.522;2023-11-21T07:30:46;2.75;;;1.77;;
19225;SDS011;9747;48.536;12.522;2023-11-21T07:33:15;1.80;;;1.63;;
19225;SDS011;9747;48.536;12.522;2023-11-21T07:35:42;2.08;;;1.60;;
19225;SDS011;9747;48.536;12.522;2023-11-21T07:38:10;2.30;;;1.65;;
19225;SDS011;9747;48.536;12.522;2023-11-21T07:40:38;1.88;;;1.65;;
19225;SDS011;9747;48.536;12.522;2023-11-21T07:43:05;2.28;;;1.90;;
19225;SDS011;9747;48.536;12.522;2023-11-21T07:45:33;3.72;;;1.83;;
19225;SDS011;9747;48.536;12.522;2023-11-21T07:48:01;1.58;;;1.48;;
19225;SDS011;9747;48.536;12.522;2023-11-21T07:50:31;3.30;;;1.90;;
19225;SDS011;9747;48.536;12.522;2023-11-21T07:52:58;1.85;;;1.70;;
19225;SDS011;9747;48.536;12.522;2023-11-21T07:55:26;1.70;;;1.60;;
19225;SDS011;9747;48.536;12.522;2023-11-21T07:57:57;2.42;;;1.60;;
19225;SDS011;9747;48.536;12.522;2023-11-21T08:00:24;2.25;;;1.80;;
19225;SDS011;9747;48.536;12.522;2023-11-21T08:02:55;2.67;;;1.70;;
19225;SDS011;9747;48.536;12.522;2023-11-21T08:05:22;1.77;;;1.50;;
19225;SDS011;9747;48.536;12.522;2023-11-21T08:07:51;2.03;;;1.83;;
19225;SDS011;9747;48.536;12.522;2023-11-21T08:10:18;1.60;;;1.50;;
19225;SDS011;9747;48.536;12.522;2023-11-21T08:12:47;1.70;;;1.60;;
19225;SDS011;9747;48.536;12.522;2023-11-21T08:15:15;3.58;;;2.00;;
19225;SDS011;9747;48.536;12.522;2023-11-21T08:17:43;2.60;;;1.67;;
19225;SDS011;9747;48.536;12.522;2023-11-21T08:20:10;1.98;;;1.58;;
19225;SDS011;9747;48.536;12.522;2023-11-21T08:22:41;1.75;;;1.30;;
19225;SDS011;9747;48.536;12.522;2023-11-21T08:25:10;2.50;;;1.60;;
19225;SDS011;9747;48.536;12.522;2023-11-21T08:27:38;1.30;;;1.20;;
19225;SDS011;9747;48.536;12.522;2023-11-21T08:30:07;1.50;;;1.40;;
19225;SDS011;9747;48.536;12.522;2023-11-21T08:32:35;1.33;;;1.23;;
19225;SDS011;9747;48.536;12.522;2023-11-21T08:35:02;1.80;;;1.50;;
19225;SDS011;9747;48.536;12.522;2023-11-21T08:37:30;1.80;;;1.40;;
19225;SDS011;9747;48.536;12.522;2023-11-21T08:40:01;1.40;;;1.30;;
19225;SDS011;9747;48.536;12.522;2023-11-21T08:42:30;1.27;;;1.20;;
19225;SDS011;9747;48.536;12.522;2023-11-21T08:44:57;1.63;;;1.48;;
19225;SDS011;9747;48.536;12.522;2023-11-21T08:47:25;1.33;;;1.23;;
19225;SDS011;9747;48.536;12.522;2023-11-21T08:49:53;1.58;;;1.40;;
19225;SDS011;9747;48.536;12.522;2023-11-21T08:52:21;1.70;;;1.50;;
19225;SDS011;9747;48.536;12.522;2023-11-21T08:54:48;2.47;;;1.38;;
19225;SDS011;9747;48.536;12.522;2023-11-21T08:57:21;2.30;;;1.20;;
19225;SDS011;9747;48.536;12.522;2023-11-21T08:59:49;1.88;;;1.60;;
19225;SDS011;9747;48.536;12.522;2023-11-21T09:02:20;1.75;;;1.27;;
19225;SDS011;9747;48.536;12.522;2023-11-21T09:04:48;1.45;;;1.30;;
19225;SDS011;9747;48.536;12.522;2023-11-21T09:07:17;1.40;;;1.30;;
19225;SDS011;9747;48.536;12.522;2023-11-21T09:09:45;1.38;;;1.27;;
19225;SDS011;9747;48.536;12.522;2023-11-21T09:12:13;1.80;;;1.20;;
19225;SDS011;9747;48.536;12.522;2023-11-21T09:14:41;1.30;;;1.20;;
19225;SDS011;9747;48.536;12.522;2023-11-21T09:17:11;1.40;;;1.20;;
19225;SDS011;9747;48.536;12.522;2023-11-21T09:19:39;1.20;;;1.10;;
19225;SDS011;9747;48.536;12.522;2023-11-21T09:22:08;1.40;;;1.27;;
19225;SDS011;9747;48.536;12.522;2023-11-21T09:24:36;2.42;;;1.20;;
19225;SDS011;9747;48.536;12.522;2023-11-21T09:27:04;1.15;;;1.13;;
19225;SDS011;9747;48.536;12.522;2023-11-21T09:29:31;2.20;;;1.30;;
19225;SDS011;9747;48.536;12.522;2023-11-21T09:31:58;1.30;;;1.20;;
19225;SDS011;9747;48.536;12.522;2023-11-21T09:34:27;1.48;;;1.38;;
19225;SDS011;9747;48.536;12.522;2023-11-21T09:36:55;0.98;;;0.98;;
19225;SDS011;9747;48.536;12.522;2023-11-21T09:39:23;1.13;;;1.02;;
19225;SDS011;9747;48.536;12.522;2023-11-21T09:41:51;1.90;;;0.85;;
19225;SDS011;9747;48.536;12.522;2023-11-21T09:44:22;1.42;;;1.00;;
19225;SDS011;9747;48.536;12.522;2023-11-21T09:46:56;1.25;;;1.15;;
19225;SDS011;9747;48.536;12.522;2023-11-21T09:49:27;0.90;;;0.90;;
19225;SDS011;9747;48.536;12.522;2023-11-21T09:52:00;2.00;;;1.33;;
19225;SDS011;9747;48.536;12.522;2023-11-21T09:54:30;1.15;;;1.05;;
19225;SDS011;9747;48.536;12.522;2023-11-21T09:56:57;1.00;;;1.00;;
19225;SDS011;9747;48.536;12.522;2023-11-21T09:59:25;1.10;;;1.00;;
19225;SDS011;9747;48.536;12.522;2023-11-21T10:01:58;1.33;;;1.05;;
19225;SDS011;9747;48.536;12.522;2023-11-21T10:04:25;1.10;;;1.00;;
19225;SDS011;9747;48.536;12.522;2023-11-21T10:06:54;1.10;;;0.98;;
19225;SDS011;9747;48.536;12.522;2023-11-21T10:09:21;1.00;;;0.90;;
19225;SDS011;9747;48.536;12.522;2023-11-21T10:11:52;0.85;;;0.85;;
19225;SDS011;9747;48.536;12.522;2023-11-21T10:14:19;1.38;;;1.10;;
19225;SDS011;9747;48.536;12.522;2023-11-21T10:16:51;1.92;;;0.90;;
19225;SDS011;9747;48.536;12.522;2023-11-21T10:19:19;1.33;;;0.90;;
19225;SDS011;9747;48.536;12.522;2023-11-21T10:21:50;1.20;;;1.10;;
19225;SDS011;9747;48.536;12.522;2023-11-21T10:24:18;1.00;;;1.00;;
19225;SDS011;9747;48.536;12.522;2023-11-21T10:26:45;0.98;;;0.95;;
19225;SDS011;9747;48.536;12.522;2023-11-21T10:29:14;1.20;;;1.10;;
19225;SDS011;9747;48.536;12.522;2023-11-21T10:31:43;1.00;;;1.00;;
19225;SDS011;9747;48.536;12.522;2023-11-21T10:34:14;1.38;;;1.00;;
19225;SDS011;9747;48.536;12.522;2023-11-21T10:36:42;1.23;;;1.13;;
19225;SDS011;9747;48.536;12.522;2023-11-21T10:39:14;1.02;;;1.00;;
19225;SDS011;9747;48.536;12.522;2023-11-21T10:41:44;0.93;;;0.93;;
19225;SDS011;9747;48.536;12.522;2023-11-21T10:44:13;1.20;;;1.13;;
19225;SDS011;9747;48.536;12.522;2023-11-21T10:46:45;0.90;;;0.90;;
19225;SDS011;9747;48.536;12.522;2023-11-21T10:49:15;1.10;;;0.90;;
19225;SDS011;9747;48.536;12.522;2023-11-21T10:51:44;1.23;;;1.10;;
19225;SDS011;9747;48.536;12.522;2023-11-21T10:54:18;1.17;;;0.90;;
19225;SDS011;9747;48.536;12.522;2023-11-21T10:56:47;1.20;;;1.10;;
19225;SDS011;9747;48.536;12.522;2023-11-21T10:59:22;0.98;;;0.98;;
19225;SDS011;9747;48.536;12.522;2023-11-21T11:01:51;1.02;;;0.90;;
19225;SDS011;9747;48.536;12.522;2023-11-21T11:04:19;0.90;;;0.90;;
19225;SDS011;9747;48.536;12.522;2023-11-21T11:06:48;1.25;;;0.90;;
19225;SDS011;9747;48.536;12.522;2023-11-21T11:09:22;1.10;;;1.00;;
19225;SDS011;9747;48.536;12.522;2023-11-21T11:11:50;1.05;;;0.88;;
19225;SDS011;9747;48.536;12.522;2023-11-21T11:14:19;0.77;;;0.77;;
19225;SDS011;9747;48.536;12.522;2023-11-21T11:16:50;1.05;;;1.05;;
19225;SDS011;9747;48.536;12.522;2023-11-21T11:19:20;1.50;;;0.95;;
19225;SDS011;9747;48.536;12.522;2023-11-21T11:21:49;1.05;;;0.93;;
19225;SDS011;9747;48.536;12.522;2023-11-21T11:24:36;0.90;;;0.90;;
19225;SDS011;9747;48.536;12.522;2023-11-21T11:27:23;0.90;;;0.90;;
19225;SDS011;9747;48.536;12.522;2023-11-21T11:30:00;1.00;;;1.00;;
19225;SDS011;9747;48.536;12.522;2023-11-21T11:32:40;0.80;;;0.80;;
19225;SDS011;9747;48.536;12.522;2023-11-21T11:35:17;0.88;;;0.88;;
19225;SDS011;9747;48.536;12.522;2023-11-21T11:37:51;2.00;;;0.90;;
19225;SDS011;9747;48.536;12.522;2023-11-21T11:40:21;0.80;;;0.80;;
19225;SDS011;9747;48.536;12.522;2023-11-21T11:42:56;1.45;;;1.10;;
19225;SDS011;9747;48.536;12.522;2023-11-21T11:45:25;1.17;;;0.90;;
19225;SDS011;9747;48.536;12.522;2023-11-21T11:48:00;1.25;;;0.98;;
19225;SDS011;9747;48.536;12.522;2023-11-21T11:50:29;1.00;;;0.98;;
19225;SDS011;9747;48.536;12.522;2023-11-21T11:53:11;0.80;;;0.80;;
19225;SDS011;9747;48.536;12.522;2023-11-21T11:55:41;0.90;;;0.90;;
19225;SDS011;9747;48.536;12.522;2023-11-21T11:58:09;2.10;;;0.90;;
19225;SDS011;9747;48.536;12.522;2023-11-21T12:00:36;1.73;;;1.08;;
19225;SDS011;9747;48.536;12.522;2023-11-21T12:03:06;1.98;;;1.15;;
19225;SDS011;9747;48.536;12.522;2023-11-21T12:05:35;1.55;;;1.00;;
19225;SDS011;9747;48.536;12.522;2023-11-21T12:08:05;2.40;;;1.00;;
19225;SDS011;9747;48.536;12.522;2023-11-21T12:10:33;1.27;;;1.10;;
19225;SDS011;9747;48.536;12.522;2023-11-21T12:13:05;2.65;;;1.00;;
19225;SDS011;9747;48.536;12.522;2023-11-21T12:15:33;2.05;;;1.00;;
19225;SDS011;9747;48.536;12.522;2023-11-21T12:18:01;1.48;;;1.00;;
19225;SDS011;9747;48.536;12.522;2023-11-21T12:20:29;1.23;;;1.13;;
19225;SDS011;9747;48.536;12.522;2023-11-21T12:22:57;1.30;;;1.08;;
19225;SDS011;9747;48.536;12.522;2023-11-21T12:25:26;2.67;;;0.93;;
19225;SDS011;9747;48.536;12.522;2023-11-21T12:27:57;1.38;;;1.05;;
19225;SDS011;9747;48.536;12.522;2023-11-21T12:30:27;0.93;;;0.90;;
19225;SDS011;9747;48.536;12.522;2023-11-21T12:32:57;1.27;;;0.93;;
19225;SDS011;9747;48.536;12.522;2023-11-21T12:35:26;3.28;;;1.05;;
19225;SDS011;9747;48.536;12.522;2023-11-21T12:37:56;1.15;;;0.95;;
19225;SDS011;9747;48.536;12.522;2023-11-21T12:40:24;1.40;;;1.05;;
19225;SDS011;9747;48.536;12.522;2023-11-21T12:42:53;0.80;;;0.80;;
19225;SDS011;9747;48.536;12.522;2023-11-21T12:45:22;1.10;;;1.00;;
19225;SDS011;9747;48.536;12.522;2023-11-21T12:47:54;1.10;;;0.95;;
19225;SDS011;9747;48.536;12.522;2023-11-21T12:50:25;1.17;;;1.00;;
19225;SDS011;9747;48.536;12.522;2023-11-21T12:52:58;1.20;;;1.10;;
19225;SDS011;9747;48.536;12.522;2023-11-21T12:55:29;1.00;;;0.90;;
19225;SDS011;9747;48.536;12.522;2023-11-21T12:58:01;1.60;;;1.10;;
19225;SDS011;9747;48.536;12.522;2023-11-21T13:00:35;3.53;;;1.45;;
19225;SDS011;9747;48.536;12.522;2023-11-21T13:03:05;0.93;;;0.93;;
19225;SDS011;9747;48.536;12.522;2023-11-21T13:05:34;1.25;;;0.93;;
19225;SDS011;9747;48.536;12.522;2023-11-21T13:08:04;1.00;;;1.00;;
19225;SDS011;9747;48.536;12.522;2023-11-21T13:10:35;2.00;;;1.00;;
19225;SDS011;9747;48.536;12.522;2023-11-21T13:13:04;0.80;;;0.80;;
19225;SDS011;9747;48.536;12.522;2023-11-21T13:15:34;1.25;;;0.90;;
19225;SDS011;9747;48.536;12.522;2023-11-21T13:18:07;1.30;;;0.90;;
19225;SDS011;9747;48.536;12.522;2023-11-21T13:20:36;1.17;;;1.08;;
19225;SDS011;9747;48.536;12.522;2023-11-21T13:23:07;1.42;;;0.90;;
19225;SDS011;9747;48.536;12.522;2023-11-21T13:25:37;0.70;;;0.70;;
19225;SDS011;9747;48.536;12.522;2023-11-21T13:28:06;1.08;;;1.00;;
19225;SDS011;9747;48.536;12.522;2023-11-21T13:30:34;0.80;;;0.80;;
19225;SDS011;9747;48.536;12.522;2023-11-21T13:33:04;0.80;;;0.80;;
19225;SDS011;9747;48.536;12.522;2023-11-21T13:35:35;0.90;;;0.90;;
19225;SDS011;9747;48.536;12.522;2023-11-21T13:38:07;2.90;;;1.15;;
19225;SDS011;9747;48.536;12.522;2023-11-21T13:40:36;1.85;;;1.00;;
19225;SDS011;9747;48.536;12.522;2023-11-21T13:43:08;1.67;;;0.82;;
19225;SDS011;9747;48.536;12.522;2023-11-21T13:45:36;1.27;;;1.00;;
19225;SDS011;9747;48.536;12.522;2023-11-21T13:48:04;1.15;;;1.05;;
19225;SDS011;9747;48.536;12.522;2023-11-21T13:50:35;1.88;;;1.05;;
19225;SDS011;9747;48.536;12.522;2023-11-21T13:53:04;1.70;;;0.90;;
19225;SDS011;9747;48.536;12.522;2023-11-21T13:55:41;0.80;;;0.80;;
19225;SDS011;9747;48.536;12.522;2023-11-21T13:58:08;1.88;;;1.00;;
19225;SDS011;9747;48.536;12.522;2023-11-21T14:00:41;2.15;;;1.10;;
19225;SDS011;9747;48.536;12.522;2023-11-21T14:03:12;1.45;;;1.00;;
19225;SDS011;9747;48.536;12.522;2023-11-21T14:05:46;1.10;;;1.00;;
19225;SDS011;9747;48.536;12.522;2023-11-21T14:08:16;1.50;;;1.25;;
19225;SDS011;9747;48.536;12.522;2023-11-21T14:10:46;1.55;;;0.80;;
19225;SDS011;9747;48.536;12.522;2023-11-21T14:13:20;1.58;;;1.00;;
19225;SDS011;9747;48.536;12.522;2023-11-21T14:15:48;0.95;;;0.90;;
19225;SDS011;9747;48.536;12.522;2023-11-21T14:18:24;1.30;;;1.15;;
19225;SDS011;9747;48.536;12.522;2023-11-21T14:20:55;1.35;;;1.25;;
19225;SDS011;9747;48.536;12.522;2023-11-21T14:23:23;1.13;;;1.10;;
19225;SDS011;9747;48.536;12.522;2023-11-21T14:25:50;2.72;;;1.10;;
19225;SDS011;9747;48.536;12.522;2023-11-21T14:28:18;2.47;;;1.30;;
19225;SDS011;9747;48.536;12.522;2023-11-21T14:30:45;1.90;;;1.30;;
19225;SDS011;9747;48.536;12.522;2023-11-21T14:33:13;1.33;;;1.23;;
19225;SDS011;9747;48.536;12.522;2023-11-21T14:35:43;1.25;;;1.20;;
19225;SDS011;9747;48.536;12.522;2023-11-21T14:38:12;1.65;;;1.40;;
19225;SDS011;9747;48.536;12.522;2023-11-21T14:40:39;1.73;;;1.38;;
19225;SDS011;9747;48.536;12.522;2023-11-21T14:43:07;3.35;;;2.40;;
19225;SDS011;9747;48.536;12.522;2023-11-21T14:45:34;7.43;;;6.68;;
19225;SDS011;9747;48.536;12.522;2023-11-21T14:48:02;16.08;;;14.00;;
19225;SDS011;9747;48.536;12.522;2023-11-21T14:50:41;9.25;;;8.18;;
19225;SDS011;9747;48.536;12.522;2023-11-21T14:53:33;11.07;;;7.15;;
19225;SDS011;9747;48.536;12.522;2023-11-21T14:56:18;7.22;;;5.97;;
19225;SDS011;9747;48.536;12.522;2023-11-21T14:58:52;7.53;;;6.28;;